createdAt,value
2019-05-19T00:00:21.335Z,26.33
2019-05-19T00:02:50.965Z,28.97
2019-05-19T00:05:20.398Z,33.87
2019-05-19T00:07:49.884Z,22.63
2019-05-19T00:10:19.270Z,23.23
2019-05-19T00:12:48.634Z,25.07
2019-05-19T00:15:18.112Z,18.13
2019-05-19T00:17:47.489Z,21.80
2019-05-19T00:20:16.889Z,17.97
2019-05-19T00:22:46.542Z,22.20
2019-05-19T00:25:16.171Z,24.63
2019-05-19T00:27:45.573Z,23.17
2019-05-19T00:30:15.557Z,18.63
2019-05-19T00:32:44.964Z,26.93
2019-05-19T00:35:14.289Z,22.80
2019-05-19T00:37:43.931Z,31.90
2019-05-19T00:40:13.616Z,36.80
2019-05-19T00:42:43.063Z,33.90
2019-05-19T00:45:12.530Z,43.70
2019-05-19T00:47:42.161Z,37.23
2019-05-19T00:50:11.885Z,29.40
2019-05-19T00:52:41.259Z,19.93
2019-05-19T00:55:11.065Z,22.53
2019-05-19T00:57:40.800Z,21.97
2019-05-19T01:00:11.425Z,27.20
2019-05-19T01:02:40.851Z,19.67
2019-05-19T01:05:10.263Z,21.90
2019-05-19T01:07:40.269Z,27.60
2019-05-19T01:10:09.949Z,22.63
2019-05-19T01:12:39.371Z,19.50
2019-05-19T01:15:09.278Z,21.47
2019-05-19T01:17:38.706Z,13.87
2019-05-19T01:20:09.287Z,17.27
2019-05-19T01:22:38.761Z,30.43
2019-05-19T01:25:08.484Z,32.90
2019-05-19T01:27:37.881Z,16.73
2019-05-19T01:30:07.538Z,26.40
2019-05-19T01:32:37.117Z,28.20
2019-05-19T01:35:06.447Z,23.13
2019-05-19T01:37:36.133Z,20.17
2019-05-19T01:40:05.728Z,20.00
2019-05-19T01:42:35.162Z,25.17
2019-05-19T01:45:05.188Z,15.17
2019-05-19T01:47:34.524Z,18.10
2019-05-19T01:50:16.947Z,24.60
2019-05-19T01:52:35.121Z,18.77
2019-05-19T01:55:04.635Z,17.67
2019-05-19T01:57:34.023Z,13.30
2019-05-19T02:00:03.611Z,26.53
2019-05-19T02:02:33.009Z,16.83
2019-05-19T02:05:02.364Z,25.83
2019-05-19T02:07:31.855Z,12.97
2019-05-19T02:10:01.282Z,16.77
2019-05-19T02:12:30.692Z,15.10
2019-05-19T02:15:00.128Z,16.33
2019-05-19T02:17:29.464Z,17.37
2019-05-19T02:19:58.794Z,16.20
2019-05-19T02:22:28.273Z,21.90
2019-05-19T02:24:57.707Z,16.87
2019-05-19T02:27:27.095Z,34.77
2019-05-19T02:29:56.585Z,29.77
2019-05-19T02:32:26.039Z,24.07
2019-05-19T02:34:56.119Z,31.20
2019-05-19T02:37:25.570Z,29.30
2019-05-19T02:39:54.937Z,36.07
2019-05-19T02:42:27.615Z,38.83
2019-05-19T02:44:58.963Z,35.60
2019-05-19T02:47:29.919Z,43.53
2019-05-19T02:50:00.580Z,23.93
2019-05-19T02:52:30.955Z,26.63
2019-05-19T02:55:01.467Z,38.37
2019-05-19T02:57:32.106Z,30.40
2019-05-19T03:00:02.437Z,42.80
2019-05-19T03:02:31.917Z,43.60
2019-05-19T03:05:01.373Z,47.30
2019-05-19T03:07:30.829Z,34.30
2019-05-19T03:10:00.185Z,46.93
2019-05-19T03:12:29.533Z,42.23
2019-05-19T03:14:58.939Z,27.07
2019-05-19T03:17:28.341Z,22.50
2019-05-19T03:19:57.746Z,23.23
2019-05-19T03:22:27.188Z,18.67
2019-05-19T03:24:56.590Z,27.20
2019-05-19T03:27:26.041Z,22.60
2019-05-19T03:29:58.114Z,22.47
2019-05-19T03:32:44.534Z,19.17
2019-05-19T03:35:14.396Z,18.50
2019-05-19T03:37:43.767Z,17.87
2019-05-19T03:40:21.970Z,18.67
2019-05-19T03:42:52.210Z,18.20
2019-05-19T03:45:21.617Z,19.67
2019-05-19T03:47:51.089Z,20.67
2019-05-19T03:50:20.491Z,18.53
2019-05-19T03:52:50.238Z,20.20
2019-05-19T03:55:19.711Z,20.40
2019-05-19T03:57:49.155Z,22.43
2019-05-19T04:00:18.721Z,21.27
2019-05-19T04:02:48.221Z,20.17
2019-05-19T04:05:17.619Z,21.87
2019-05-19T04:07:47.021Z,18.03
2019-05-19T04:10:16.440Z,20.83
2019-05-19T04:12:45.860Z,22.70
2019-05-19T04:15:15.233Z,20.00
2019-05-19T04:17:44.698Z,19.60
2019-05-19T04:20:14.232Z,18.27
2019-05-19T04:22:43.623Z,18.17
2019-05-19T04:25:13.179Z,22.30
2019-05-19T04:27:42.597Z,19.00
2019-05-19T04:30:13.016Z,19.47
2019-05-19T04:32:42.478Z,23.50
2019-05-19T04:35:11.827Z,19.57
2019-05-19T04:37:41.405Z,19.73
2019-05-19T04:40:11.594Z,18.40
2019-05-19T04:42:41.015Z,18.10
2019-05-19T04:45:10.781Z,18.97
2019-05-19T04:47:40.216Z,21.60
2019-05-19T04:50:09.760Z,17.20
2019-05-19T04:52:39.221Z,16.80
2019-05-19T04:55:08.775Z,20.93
2019-05-19T04:57:38.230Z,20.03
2019-05-19T05:00:07.868Z,21.00
2019-05-19T05:02:37.374Z,19.30
2019-05-19T05:05:07.217Z,15.50
2019-05-19T05:07:36.554Z,16.50
2019-05-19T05:10:06.299Z,14.27
2019-05-19T05:12:35.684Z,17.50
2019-05-19T05:15:05.910Z,15.40
2019-05-19T05:17:35.387Z,14.47
2019-05-19T05:20:05.181Z,13.80
2019-05-19T05:22:34.512Z,14.50
2019-05-19T05:25:04.099Z,13.97
2019-05-19T05:27:33.550Z,13.73
2019-05-19T05:30:02.997Z,13.37
2019-05-19T05:32:32.491Z,12.93
2019-05-19T05:35:01.911Z,15.70
2019-05-19T05:37:31.357Z,12.20
2019-05-19T05:40:01.283Z,13.83
2019-05-19T05:42:31.941Z,11.40
2019-05-19T05:45:01.616Z,10.80
2019-05-19T05:47:31.007Z,11.50
2019-05-19T05:50:00.453Z,13.73
2019-05-19T05:52:38.080Z,13.00
2019-05-19T05:55:00.975Z,13.03
2019-05-19T05:57:30.342Z,10.50
2019-05-19T05:59:59.730Z,10.43
2019-05-19T06:02:29.174Z,11.73
2019-05-19T06:04:58.557Z,13.17
2019-05-19T06:07:28.037Z,11.97
2019-05-19T06:09:57.452Z,11.40
2019-05-19T06:12:26.866Z,13.77
2019-05-19T06:14:56.230Z,12.30
2019-05-19T06:17:25.698Z,11.37
2019-05-19T06:19:55.062Z,11.40
2019-05-19T06:22:24.523Z,10.73
2019-05-19T06:24:53.948Z,12.63
2019-05-19T06:27:23.439Z,12.83
2019-05-19T06:29:54.068Z,13.37
2019-05-19T06:32:34.880Z,14.80
2019-05-19T06:35:05.532Z,15.03
2019-05-19T06:37:34.962Z,14.53
2019-05-19T06:40:04.910Z,12.80
2019-05-19T06:42:35.003Z,11.93
2019-05-19T06:45:04.470Z,14.93
2019-05-19T06:47:33.903Z,11.53
2019-05-19T06:50:03.357Z,14.17
2019-05-19T06:52:32.792Z,12.60
2019-05-19T06:55:02.308Z,13.40
2019-05-19T06:57:31.737Z,14.07
2019-05-19T07:00:01.237Z,13.70
2019-05-19T07:02:30.733Z,12.17
2019-05-19T07:05:00.263Z,13.10
2019-05-19T07:07:30.927Z,13.93
2019-05-19T07:10:00.395Z,13.13
2019-05-19T07:12:29.771Z,10.67
2019-05-19T07:14:59.179Z,11.00
2019-05-19T07:17:28.524Z,14.50
2019-05-19T07:19:57.901Z,16.20
2019-05-19T07:22:27.238Z,13.20
2019-05-19T07:24:56.690Z,13.37
2019-05-19T07:27:27.273Z,14.03
2019-05-19T07:29:56.646Z,12.90
2019-05-19T07:32:26.170Z,16.77
2019-05-19T07:34:55.611Z,17.63
2019-05-19T07:37:25.130Z,25.63
2019-05-19T07:39:54.690Z,14.80
2019-05-19T07:42:24.187Z,25.50
2019-05-19T07:44:55.379Z,23.53
2019-05-19T07:47:24.818Z,27.40
2019-05-19T07:49:54.332Z,23.43
2019-05-19T07:52:23.753Z,17.67
2019-05-19T07:54:53.138Z,17.37
2019-05-19T07:57:23.763Z,14.97
2019-05-19T07:59:53.209Z,17.77
2019-05-19T08:02:22.707Z,12.43
2019-05-19T08:04:52.668Z,16.13
2019-05-19T08:07:23.391Z,13.90
2019-05-19T08:09:53.238Z,11.07
2019-05-19T08:12:22.650Z,17.77
2019-05-19T08:14:52.027Z,20.97
2019-05-19T08:17:21.503Z,20.00
2019-05-19T08:20:10.043Z,15.83
2019-05-19T08:22:40.719Z,18.37
2019-05-19T08:25:29.210Z,17.13
2019-05-19T08:28:07.699Z,18.80
2019-05-19T08:30:29.854Z,15.10
2019-05-19T08:32:59.439Z,22.20
2019-05-19T08:35:28.907Z,23.53
2019-05-19T08:37:58.367Z,26.03
2019-05-19T08:40:27.781Z,23.27
2019-05-19T08:42:57.558Z,16.13
2019-05-19T08:45:27.747Z,14.07
2019-05-19T08:47:57.174Z,20.90
2019-05-19T08:50:27.632Z,20.70
2019-05-19T08:52:57.624Z,16.90
2019-05-19T08:55:27.047Z,19.23
2019-05-19T08:57:56.531Z,28.90
2019-05-19T09:00:25.949Z,22.67
2019-05-19T09:02:55.295Z,13.77
2019-05-19T09:05:24.911Z,20.20
2019-05-19T09:07:55.568Z,16.73
2019-05-19T09:10:26.367Z,14.90
2019-05-19T09:12:55.774Z,12.33
2019-05-19T09:15:25.167Z,15.57
2019-05-19T09:17:54.631Z,15.20
2019-05-19T09:20:24.103Z,14.80
2019-05-19T09:22:53.472Z,13.60
2019-05-19T09:25:22.828Z,16.30
2019-05-19T09:27:52.199Z,16.47
2019-05-19T09:30:24.314Z,14.30
2019-05-19T09:32:53.696Z,17.20
2019-05-19T09:35:23.156Z,14.23
2019-05-19T09:37:52.654Z,15.37
2019-05-19T09:40:22.266Z,18.53
2019-05-19T09:42:51.697Z,22.73
2019-05-19T09:45:21.121Z,29.97
2019-05-19T09:47:51.160Z,18.83
2019-05-19T09:50:20.653Z,18.47
2019-05-19T09:52:50.061Z,28.47
2019-05-19T09:55:19.423Z,37.90
2019-05-19T09:57:48.809Z,28.07
2019-05-19T10:00:18.762Z,21.40
2019-05-19T10:02:49.924Z,24.53
2019-05-19T10:05:20.427Z,24.63
2019-05-19T10:07:49.843Z,23.63
2019-05-19T10:10:31.571Z,23.30
2019-05-19T10:13:00.982Z,29.80
2019-05-19T10:15:30.401Z,19.57
2019-05-19T10:17:59.863Z,19.67
2019-05-19T10:20:29.350Z,21.67
2019-05-19T10:22:58.768Z,20.47
2019-05-19T10:25:28.327Z,26.57
2019-05-19T10:27:57.796Z,16.77
2019-05-19T10:30:27.254Z,20.63
2019-05-19T10:32:58.716Z,20.17
2019-05-19T10:35:27.962Z,18.67
2019-05-19T10:37:57.698Z,19.00
2019-05-19T10:40:27.513Z,18.57
2019-05-19T10:42:56.876Z,20.03
2019-05-19T10:45:26.275Z,19.77
2019-05-19T10:47:55.749Z,19.30
2019-05-19T10:50:25.551Z,25.27
2019-05-19T10:52:54.983Z,24.30
2019-05-19T10:55:35.485Z,18.83
2019-05-19T10:57:55.425Z,19.53
2019-05-19T11:00:24.814Z,22.43
2019-05-19T11:02:54.643Z,21.43
2019-05-19T11:05:24.089Z,18.03
2019-05-19T11:07:53.619Z,16.17
2019-05-19T11:10:23.088Z,25.63
2019-05-19T11:12:52.692Z,26.23
2019-05-19T11:15:22.064Z,18.30
2019-05-19T11:17:51.541Z,29.17
2019-05-19T11:20:20.904Z,21.67
2019-05-19T11:22:50.270Z,21.40
2019-05-19T11:25:33.068Z,25.23
2019-05-19T11:27:51.311Z,23.40
2019-05-19T11:30:20.721Z,23.33
2019-05-19T11:32:50.205Z,22.70
2019-05-19T11:35:20.701Z,19.97
2019-05-19T11:37:50.007Z,25.80
2019-05-19T11:40:19.520Z,22.43
2019-05-19T11:42:48.925Z,17.73
2019-05-19T11:45:19.513Z,16.67
2019-05-19T11:47:49.264Z,14.87
2019-05-19T11:50:18.742Z,17.07
2019-05-19T11:52:48.603Z,14.23
2019-05-19T11:55:18.064Z,20.73
2019-05-19T11:57:47.505Z,23.57
2019-05-19T12:00:18.283Z,14.50
2019-05-19T12:02:47.681Z,11.43
2019-05-19T12:05:17.370Z,19.13
2019-05-19T12:07:46.828Z,17.37
2019-05-19T12:10:16.795Z,14.47
2019-05-19T12:12:46.263Z,12.10
2019-05-19T12:15:17.309Z,16.03
2019-05-19T12:17:46.784Z,14.37
2019-05-19T12:20:16.595Z,11.43
2019-05-19T12:22:46.041Z,20.23
2019-05-19T12:25:15.813Z,17.13
2019-05-19T12:27:45.213Z,15.27
2019-05-19T12:30:19.490Z,21.57
2019-05-19T12:32:48.946Z,18.80
2019-05-19T12:35:18.567Z,21.13
2019-05-19T12:37:48.033Z,13.20
2019-05-19T12:40:17.638Z,11.57
2019-05-19T12:42:47.037Z,17.80
2019-05-19T12:45:16.566Z,13.23
2019-05-19T12:47:46.009Z,10.93
2019-05-19T12:50:16.885Z,15.23
2019-05-19T12:52:49.047Z,14.07
2019-05-19T12:55:19.455Z,17.13
2019-05-19T12:57:48.822Z,15.63
2019-05-19T13:00:18.416Z,10.07
2019-05-19T13:02:49.105Z,15.50
2019-05-19T13:05:18.508Z,8.67
2019-05-19T13:07:47.966Z,8.93
2019-05-19T13:10:17.731Z,9.60
2019-05-19T13:12:47.207Z,15.77
2019-05-19T13:15:17.137Z,20.10
2019-05-19T13:17:47.665Z,32.97
2019-05-19T13:20:17.058Z,22.03
2019-05-19T13:22:46.871Z,16.40
2019-05-19T13:25:16.300Z,10.77
2019-05-19T13:27:46.910Z,12.70
2019-05-19T13:30:16.456Z,10.67
2019-05-19T13:32:45.961Z,16.47
2019-05-19T13:35:15.709Z,18.30
2019-05-19T13:37:46.809Z,15.33
2019-05-19T13:40:16.253Z,12.13
2019-05-19T13:42:45.676Z,10.33
2019-05-19T13:45:15.547Z,12.67
2019-05-19T13:47:45.196Z,21.07
2019-05-19T13:50:14.827Z,21.07
2019-05-19T13:52:44.210Z,17.13
2019-05-19T13:55:13.704Z,16.93
2019-05-19T13:57:43.287Z,16.83
2019-05-19T14:00:12.894Z,20.07
2019-05-19T14:02:43.299Z,10.83
2019-05-19T14:05:12.802Z,12.43
2019-05-19T14:07:43.601Z,12.93
2019-05-19T14:10:13.754Z,14.67
2019-05-19T14:12:43.209Z,10.07
2019-05-19T14:15:12.841Z,13.43
2019-05-19T14:17:42.306Z,11.80
2019-05-19T14:20:13.161Z,14.80
2019-05-19T14:22:42.657Z,12.90
2019-05-19T14:25:12.250Z,14.10
2019-05-19T14:27:41.605Z,12.53
2019-05-19T14:30:11.472Z,16.17
2019-05-19T14:32:40.973Z,12.67
2019-05-19T14:35:10.458Z,16.90
2019-05-19T14:37:39.886Z,18.30
2019-05-19T14:40:09.794Z,20.33
2019-05-19T14:42:49.758Z,26.30
2019-05-19T14:45:20.281Z,13.07
2019-05-19T14:47:49.707Z,9.20
2019-05-19T14:50:19.099Z,10.40
2019-05-19T14:52:48.539Z,10.70
2019-05-19T14:55:18.908Z,12.60
2019-05-19T14:57:48.919Z,12.53
2019-05-19T15:00:19.159Z,15.30
2019-05-19T15:02:48.573Z,17.40
2019-05-19T15:05:18.104Z,18.93
2019-05-19T15:07:47.550Z,11.07
2019-05-19T15:10:18.435Z,14.97
2019-05-19T15:12:47.879Z,13.83
2019-05-19T15:15:17.431Z,9.20
2019-05-19T15:17:46.973Z,10.77
2019-05-19T15:20:16.730Z,9.40
2019-05-19T15:22:46.122Z,17.63
2019-05-19T15:25:16.581Z,15.30
2019-05-19T15:27:59.406Z,13.00
2019-05-19T15:30:17.388Z,10.30
2019-05-19T15:32:47.900Z,7.97
2019-05-19T15:35:17.504Z,8.90
2019-05-19T15:37:46.971Z,13.63
2019-05-19T15:40:16.402Z,7.63
2019-05-19T15:42:45.966Z,7.20
2019-05-19T15:45:15.804Z,10.73
2019-05-19T15:47:45.294Z,13.13
2019-05-19T15:50:15.217Z,8.47
2019-05-19T15:52:44.612Z,6.23
2019-05-19T15:55:14.301Z,29.17
2019-05-19T15:57:43.787Z,8.37
2019-05-19T16:00:16.255Z,12.03
2019-05-19T16:02:45.693Z,10.20
2019-05-19T16:05:17.341Z,8.83
2019-05-19T16:07:46.706Z,8.33
2019-05-19T16:10:16.381Z,9.70
2019-05-19T16:12:46.908Z,11.43
2019-05-19T16:15:17.944Z,9.13
2019-05-19T16:17:47.311Z,6.47
2019-05-19T16:20:16.752Z,8.90
2019-05-19T16:22:46.430Z,7.10
2019-05-19T16:25:15.807Z,10.50
2019-05-19T16:27:45.630Z,7.20
2019-05-19T16:30:15.487Z,6.50
2019-05-19T16:32:44.786Z,7.60
2019-05-19T16:35:14.297Z,10.87
2019-05-19T16:37:46.520Z,8.87
2019-05-19T16:40:15.880Z,10.73
2019-05-19T16:42:45.255Z,7.87
2019-05-19T16:45:15.829Z,6.97
2019-05-19T16:47:45.166Z,9.87
2019-05-19T16:50:14.715Z,8.37
2019-05-19T16:52:47.122Z,7.53
2019-05-19T16:55:24.586Z,8.27
2019-05-19T16:57:54.720Z,9.90
2019-05-19T17:00:25.560Z,8.50
2019-05-19T17:02:56.919Z,7.33
2019-05-19T17:05:26.260Z,7.27
2019-05-19T17:07:55.665Z,11.07
2019-05-19T17:10:25.166Z,11.33
2019-05-19T17:12:56.447Z,14.33
2019-05-19T17:15:25.956Z,10.70
2019-05-19T17:17:55.464Z,15.70
2019-05-19T17:20:24.867Z,13.10
2019-05-19T17:22:54.327Z,12.53
2019-05-19T17:25:23.866Z,23.23
2019-05-19T17:27:53.237Z,19.90
2019-05-19T17:30:23.515Z,11.67
2019-05-19T17:32:52.945Z,12.13
2019-05-19T17:35:22.351Z,15.17
2019-05-19T17:37:51.821Z,17.87
2019-05-19T17:40:40.396Z,14.17
2019-05-19T17:43:09.880Z,20.47
2019-05-19T17:45:39.349Z,19.30
2019-05-19T17:48:14.572Z,12.97
2019-05-19T17:50:40.185Z,12.67
2019-05-19T17:53:09.689Z,16.60
2019-05-19T17:55:39.486Z,15.50
2019-05-19T17:58:08.985Z,12.70
2019-05-19T18:00:39.634Z,15.40
2019-05-19T18:03:09.426Z,17.67
2019-05-19T18:05:39.324Z,14.33
2019-05-19T18:08:08.697Z,14.23
2019-05-19T18:10:38.476Z,10.37
2019-05-19T18:13:07.905Z,7.07
2019-05-19T18:15:37.662Z,8.10
2019-05-19T18:18:07.026Z,6.33
2019-05-19T18:20:36.378Z,10.57
2019-05-19T18:23:05.810Z,8.40
2019-05-19T18:25:35.213Z,12.10
2019-05-19T18:28:04.607Z,7.10
2019-05-19T18:30:34.054Z,11.37
2019-05-19T18:33:03.805Z,10.77
2019-05-19T18:35:33.124Z,11.13
2019-05-19T18:38:02.651Z,10.33
2019-05-19T18:40:32.175Z,11.67
2019-05-19T18:43:01.742Z,8.43
2019-05-19T18:45:31.066Z,17.60
2019-05-19T18:48:00.614Z,9.13
2019-05-19T18:50:30.067Z,21.27
2019-05-19T18:52:59.504Z,17.00
2019-05-19T18:55:28.949Z,15.43
2019-05-19T18:58:00.071Z,19.63
2019-05-19T19:00:35.234Z,14.53
2019-05-19T19:03:05.220Z,23.43
2019-05-19T19:05:34.632Z,14.57
2019-05-19T19:08:04.569Z,16.63
2019-05-19T19:10:35.026Z,10.90
2019-05-19T19:13:04.406Z,7.97
2019-05-19T19:15:34.362Z,14.60
2019-05-19T19:18:05.002Z,12.03
2019-05-19T19:20:35.116Z,10.97
2019-05-19T19:23:05.125Z,11.73
2019-05-19T19:25:34.491Z,13.13
2019-05-19T19:28:03.878Z,10.57
2019-05-19T19:30:34.567Z,11.43
2019-05-19T19:33:05.213Z,12.20
2019-05-19T19:35:39.119Z,15.50
2019-05-19T19:38:08.488Z,10.53
2019-05-19T19:40:37.969Z,13.30
2019-05-19T19:43:08.045Z,10.43
2019-05-19T19:45:37.857Z,10.37
2019-05-19T19:48:09.410Z,8.70
2019-05-19T19:50:39.225Z,6.07
2019-05-19T19:53:09.139Z,11.20
2019-05-19T19:55:40.623Z,12.53
2019-05-19T19:58:10.113Z,8.27
2019-05-19T20:00:41.533Z,11.57
2019-05-19T20:03:11.448Z,13.80
2019-05-19T20:05:42.087Z,13.13
2019-05-19T20:08:11.802Z,10.77
2019-05-19T20:10:41.816Z,11.93
2019-05-19T20:13:12.320Z,8.37
2019-05-19T20:16:00.822Z,9.83
2019-05-19T20:18:30.340Z,10.47
2019-05-19T20:20:59.754Z,11.37
2019-05-19T20:23:29.517Z,8.03
2019-05-19T20:25:58.861Z,8.00
2019-05-19T20:28:28.321Z,11.47
2019-05-19T20:30:57.742Z,12.07
2019-05-19T20:33:27.085Z,8.90
2019-05-19T20:35:58.226Z,9.80
2019-05-19T20:38:27.634Z,13.90
2019-05-19T20:40:57.011Z,16.13
2019-05-19T20:43:26.433Z,11.87
2019-05-19T20:45:55.867Z,17.87
2019-05-19T20:48:25.291Z,17.67
2019-05-19T20:51:13.772Z,21.30
2019-05-19T20:53:43.141Z,24.40
2019-05-19T20:56:12.593Z,18.90
2019-05-19T20:58:42.063Z,20.30
2019-05-19T21:01:11.483Z,13.40
2019-05-19T21:03:40.912Z,19.73
2019-05-19T21:06:10.339Z,10.77
2019-05-19T21:08:39.685Z,11.23
2019-05-19T21:11:09.488Z,15.40
2019-05-19T21:13:40.186Z,11.23
2019-05-19T21:16:09.594Z,22.77
2019-05-19T21:18:39.015Z,11.57
2019-05-19T21:21:08.481Z,16.43
2019-05-19T21:23:37.883Z,13.00
2019-05-19T21:26:07.272Z,12.50
2019-05-19T21:28:37.058Z,9.93
2019-05-19T21:31:06.622Z,9.50
2019-05-19T21:33:36.059Z,7.57
2019-05-19T21:36:05.450Z,8.40
2019-05-19T21:38:34.823Z,8.97
2019-05-19T21:41:04.215Z,11.53
2019-05-19T21:43:33.673Z,9.57
2019-05-19T21:46:06.268Z,7.73
2019-05-19T21:48:34.767Z,8.93
2019-05-19T21:51:04.715Z,7.67
2019-05-19T21:53:34.153Z,5.40
2019-05-19T21:56:04.973Z,6.63
2019-05-19T21:58:35.838Z,7.50
2019-05-19T22:01:05.231Z,7.17
2019-05-19T22:03:34.599Z,10.07
2019-05-19T22:06:04.039Z,10.67
2019-05-19T22:08:33.451Z,8.33
2019-05-19T22:11:04.651Z,10.63
2019-05-19T22:13:35.301Z,8.33
2019-05-19T22:16:12.789Z,6.90
2019-05-19T22:18:36.023Z,8.93
2019-05-19T22:21:05.574Z,7.37
2019-05-19T22:23:34.992Z,6.30
2019-05-19T22:26:04.387Z,7.03
2019-05-19T22:28:33.958Z,9.37
2019-05-19T22:31:03.436Z,7.50
2019-05-19T22:33:32.883Z,11.47
2019-05-19T22:36:02.356Z,11.30
2019-05-19T22:38:31.754Z,14.57
2019-05-19T22:41:01.116Z,11.37
2019-05-19T22:43:32.313Z,10.70
2019-05-19T22:46:01.604Z,11.63
2019-05-19T22:48:30.965Z,12.77
2019-05-19T22:51:00.550Z,14.00
2019-05-19T22:53:32.623Z,14.30
2019-05-19T22:56:01.270Z,12.87
2019-05-19T22:58:30.899Z,13.53
2019-05-19T23:01:00.466Z,12.43
2019-05-19T23:03:30.989Z,11.33
2019-05-19T23:06:00.760Z,11.87
2019-05-19T23:08:31.180Z,11.90
2019-05-19T23:11:00.585Z,10.23
2019-05-19T23:13:30.069Z,11.43
2019-05-19T23:16:00.905Z,11.30
2019-05-19T23:18:30.321Z,14.23
2019-05-19T23:20:59.792Z,13.63
2019-05-19T23:23:29.415Z,13.80
2019-05-19T23:25:58.794Z,15.77
2019-05-19T23:28:28.258Z,12.93
2019-05-19T23:30:57.572Z,9.97
2019-05-19T23:33:26.939Z,10.53
2019-05-19T23:35:57.888Z,13.80
2019-05-19T23:38:27.350Z,12.37
2019-05-19T23:40:56.796Z,13.97
2019-05-19T23:43:27.411Z,9.83
2019-05-19T23:45:56.954Z,10.30
2019-05-19T23:48:26.368Z,10.83
2019-05-19T23:50:55.945Z,8.23
2019-05-19T23:53:25.362Z,8.33
2019-05-19T23:55:54.705Z,7.47
2019-05-19T23:58:24.067Z,7.43
